sensor_id;sensor_type;location;lat;lon;timestamp;pressure;altitude;pressure_sealevel;temperature;humidity
55456;BME280;63021;52.836;6.376;2022-12-29T00:02:10;99895.34;;;9.91;85.86
55456;BME280;63021;52.836;6.376;2022-12-29T00:04:36;99904.97;;;9.92;86.02
55456;BME280;63021;52.836;6.376;2022-12-29T00:07:01;99892.50;;;9.92;86.04
55456;BME280;63021;52.836;6.376;2022-12-29T00:09:30;99895.16;;;9.92;86.20
55456;BME280;63021;52.836;6.376;2022-12-29T00:11:56;99895.97;;;9.93;86.34
55456;BME280;63021;52.836;6.376;2022-12-29T00:14:21;99897.00;;;9.92;86.53
55456;BME280;63021;52.836;6.376;2022-12-29T00:17:05;99898.00;;;9.91;86.33
55456;BME280;63021;52.836;6.376;2022-12-29T00:19:31;99889.19;;;9.90;86.03
55456;BME280;63021;52.836;6.376;2022-12-29T00:22:15;99897.00;;;9.92;85.94
55456;BME280;63021;52.836;6.376;2022-12-29T00:24:59;99880.88;;;9.93;86.09
55456;BME280;63021;52.836;6.376;2022-12-29T00:27:34;99882.56;;;9.94;86.72
55456;BME280;63021;52.836;6.376;2022-12-29T00:30:20;99881.53;;;9.95;86.22
55456;BME280;63021;52.836;6.376;2022-12-29T00:33:11;99884.03;;;9.97;86.50
55456;BME280;63021;52.836;6.376;2022-12-29T00:36:08;99865.25;;;9.98;86.55
55456;BME280;63021;52.836;6.376;2022-12-29T00:38:43;99874.06;;;9.99;86.24
55456;BME280;63021;52.836;6.376;2022-12-29T00:41:28;99871.25;;;10.00;86.34
55456;BME280;63021;52.836;6.376;2022-12-29T00:44:13;99868.41;;;10.02;86.61
55456;BME280;63021;52.836;6.376;2022-12-29T00:46:42;99867.25;;;10.04;86.77
55456;BME280;63021;52.836;6.376;2022-12-29T00:49:10;99871.56;;;10.05;87.00
55456;BME280;63021;52.836;6.376;2022-12-29T00:52:02;99847.63;;;10.05;85.91
55456;BME280;63021;52.836;6.376;2022-12-29T00:54:33;99844.81;;;10.07;86.69
55456;BME280;63021;52.836;6.376;2022-12-29T00:56:59;99843.81;;;10.08;86.52
55456;BME280;63021;52.836;6.376;2022-12-29T00:59:25;99840.16;;;10.09;86.21
55456;BME280;63021;52.836;6.376;2022-12-29T01:01:51;99845.94;;;10.13;86.40
55456;BME280;63021;52.836;6.376;2022-12-29T01:04:18;99845.81;;;10.14;86.44
55456;BME280;63021;52.836;6.376;2022-12-29T01:06:43;99844.97;;;10.14;86.20
55456;BME280;63021;52.836;6.376;2022-12-29T01:09:10;99847.28;;;10.17;86.00
55456;BME280;63021;52.836;6.376;2022-12-29T01:11:54;99840.31;;;10.16;86.40
55456;BME280;63021;52.836;6.376;2022-12-29T01:14:20;99833.34;;;10.15;85.73
55456;BME280;63021;52.836;6.376;2022-12-29T01:16:46;99822.69;;;10.15;85.90
55456;BME280;63021;52.836;6.376;2022-12-29T01:19:13;99830.50;;;10.16;86.11
55456;BME280;63021;52.836;6.376;2022-12-29T01:21:38;99825.34;;;10.15;85.73
55456;BME280;63021;52.836;6.376;2022-12-29T01:24:04;99819.88;;;10.16;85.46
55456;BME280;63021;52.836;6.376;2022-12-29T01:26:30;99812.53;;;10.18;85.73
55456;BME280;63021;52.836;6.376;2022-12-29T01:28:55;99816.03;;;10.19;85.42
55456;BME280;63021;52.836;6.376;2022-12-29T01:31:21;99821.00;;;10.22;85.06
55456;BME280;63021;52.836;6.376;2022-12-29T01:33:47;99810.38;;;10.22;85.25
55456;BME280;63021;52.836;6.376;2022-12-29T01:36:15;99803.88;;;10.25;84.95
55456;BME280;63021;52.836;6.376;2022-12-29T01:38:41;99805.69;;;10.24;85.26
55456;BME280;63021;52.836;6.376;2022-12-29T01:41:08;99802.22;;;10.23;84.55
55456;BME280;63021;52.836;6.376;2022-12-29T01:43:45;99803.03;;;10.24;84.79
55456;BME280;63021;52.836;6.376;2022-12-29T01:48:47;99795.06;;;10.24;84.77
55456;BME280;63021;52.836;6.376;2022-12-29T01:51:15;99793.25;;;10.25;84.92
55456;BME280;63021;52.836;6.376;2022-12-29T01:53:42;99789.75;;;10.24;84.92
55456;BME280;63021;52.836;6.376;2022-12-29T01:56:12;99785.28;;;10.25;84.21
55456;BME280;63021;52.836;6.376;2022-12-29T01:58:45;99776.28;;;10.26;84.84
55456;BME280;63021;52.836;6.376;2022-12-29T02:01:11;99785.28;;;10.25;84.62
55456;BME280;63021;52.836;6.376;2022-12-29T02:03:36;99769.31;;;10.25;84.69
55456;BME280;63021;52.836;6.376;2022-12-29T02:06:08;99767.28;;;10.27;84.68
55456;BME280;63021;52.836;6.376;2022-12-29T02:08:37;99773.59;;;10.26;84.80
55456;BME280;63021;52.836;6.376;2022-12-29T02:11:03;99773.47;;;10.27;84.38
55456;BME280;63021;52.836;6.376;2022-12-29T02:13:29;99769.78;;;10.28;84.36
55456;BME280;63021;52.836;6.376;2022-12-29T02:37:43;99757.66;;;10.26;83.95
55456;BME280;63021;52.836;6.376;2022-12-29T02:40:31;99754.34;;;10.23;84.35
55456;BME280;63021;52.836;6.376;2022-12-29T02:45:34;99765.81;;;10.24;84.27
55456;BME280;63021;52.836;6.376;2022-12-29T02:50:53;99764.00;;;10.25;84.05
55456;BME280;63021;52.836;6.376;2022-12-29T02:53:23;99756.19;;;10.23;83.80
55456;BME280;63021;52.836;6.376;2022-12-29T02:56:08;99761.69;;;10.21;84.55
55456;BME280;63021;52.836;6.376;2022-12-29T02:58:34;99765.97;;;10.22;84.36
55456;BME280;63021;52.836;6.376;2022-12-29T03:12:12;99770.66;;;10.20;83.93
55456;BME280;63021;52.836;6.376;2022-12-29T03:14:57;99781.94;;;10.22;84.27
55456;BME280;63021;52.836;6.376;2022-12-29T03:18:06;99780.31;;;10.21;83.94
55456;BME280;63021;52.836;6.376;2022-12-29T03:20:40;99776.78;;;10.21;84.20
55456;BME280;63021;52.836;6.376;2022-12-29T03:23:10;99768.16;;;10.19;84.44
55456;BME280;63021;52.836;6.376;2022-12-29T03:25:40;99773.31;;;10.20;84.02
55456;BME280;63021;52.836;6.376;2022-12-29T03:28:18;99773.13;;;10.22;84.32
55456;BME280;63021;52.836;6.376;2022-12-29T03:30:46;99761.81;;;10.20;83.80
55456;BME280;63021;52.836;6.376;2022-12-29T03:33:14;99755.50;;;10.21;84.34
55456;BME280;63021;52.836;6.376;2022-12-29T03:35:44;99755.69;;;10.19;84.37
55456;BME280;63021;52.836;6.376;2022-12-29T03:41:07;99742.38;;;10.19;83.76
55456;BME280;63021;52.836;6.376;2022-12-29T03:43:34;99739.91;;;10.18;84.22
55456;BME280;63021;52.836;6.376;2022-12-29T03:46:00;99743.72;;;10.15;83.80
55456;BME280;63021;52.836;6.376;2022-12-29T03:48:25;99741.06;;;10.15;83.42
55456;BME280;63021;52.836;6.376;2022-12-29T03:50:50;99746.56;;;10.14;83.18
55456;BME280;63021;52.836;6.376;2022-12-29T03:53:16;99746.72;;;10.12;83.64
55456;BME280;63021;52.836;6.376;2022-12-29T03:55:41;99760.84;;;10.13;83.18
55456;BME280;63021;52.836;6.376;2022-12-29T03:58:07;99756.56;;;10.12;82.89
55456;BME280;63021;52.836;6.376;2022-12-29T04:00:32;99748.75;;;10.10;82.73
55456;BME280;63021;52.836;6.376;2022-12-29T04:02:58;99753.38;;;10.08;83.05
55456;BME280;63021;52.836;6.376;2022-12-29T04:05:23;99752.75;;;10.06;82.65
55456;BME280;63021;52.836;6.376;2022-12-29T04:07:49;99770.69;;;10.04;82.87
55456;BME280;63021;52.836;6.376;2022-12-29T04:10:14;99768.53;;;9.99;82.73
55456;BME280;63021;52.836;6.376;2022-12-29T04:12:39;99738.47;;;9.99;82.69
55456;BME280;63021;52.836;6.376;2022-12-29T04:15:07;99757.59;;;9.94;83.49
55456;BME280;63021;52.836;6.376;2022-12-29T04:17:33;99764.91;;;9.92;82.83
55456;BME280;63021;52.836;6.376;2022-12-29T04:19:58;99771.38;;;9.89;82.68
55456;BME280;63021;52.836;6.376;2022-12-29T04:22:44;99767.38;;;9.85;82.71
55456;BME280;63021;52.836;6.376;2022-12-29T04:25:09;99772.41;;;9.80;83.10
55456;BME280;63021;52.836;6.376;2022-12-29T04:27:34;99770.41;;;9.74;82.76
55456;BME280;63021;52.836;6.376;2022-12-29T04:30:00;99767.25;;;9.70;82.83
55456;BME280;63021;52.836;6.376;2022-12-29T04:32:25;99776.38;;;9.68;83.18
55456;BME280;63021;52.836;6.376;2022-12-29T04:34:50;99768.91;;;9.63;82.66
55456;BME280;63021;52.836;6.376;2022-12-29T04:37:16;99779.06;;;9.60;83.09
55456;BME280;63021;52.836;6.376;2022-12-29T04:39:42;99789.19;;;9.56;83.34
55456;BME280;63021;52.836;6.376;2022-12-29T04:42:07;99771.56;;;9.55;82.90
55456;BME280;63021;52.836;6.376;2022-12-29T04:44:33;99782.22;;;9.55;83.39
55456;BME280;63021;52.836;6.376;2022-12-29T04:46:58;99786.69;;;9.54;83.35
55456;BME280;63021;52.836;6.376;2022-12-29T04:49:23;99794.84;;;9.53;82.75
55456;BME280;63021;52.836;6.376;2022-12-29T04:51:49;99794.84;;;9.53;82.61
55456;BME280;63021;52.836;6.376;2022-12-29T04:54:14;99784.38;;;9.51;82.75
55456;BME280;63021;52.836;6.376;2022-12-29T04:56:39;99785.88;;;9.54;82.60
55456;BME280;63021;52.836;6.376;2022-12-29T04:59:05;99787.03;;;9.51;82.54
55456;BME280;63021;52.836;6.376;2022-12-29T05:01:30;99783.38;;;9.52;81.79
55456;BME280;63021;52.836;6.376;2022-12-29T05:03:55;99779.88;;;9.52;82.40
55456;BME280;63021;52.836;6.376;2022-12-29T05:06:21;99770.25;;;9.51;82.50
55456;BME280;63021;52.836;6.376;2022-12-29T05:08:46;99776.75;;;9.48;81.66
55456;BME280;63021;52.836;6.376;2022-12-29T05:11:12;99771.78;;;9.45;81.89
55456;BME280;63021;52.836;6.376;2022-12-29T05:13:37;99768.94;;;9.47;82.27
55456;BME280;63021;52.836;6.376;2022-12-29T05:16:02;99768.94;;;9.47;81.80
55456;BME280;63021;52.836;6.376;2022-12-29T05:18:28;99774.56;;;9.44;82.21
55456;BME280;63021;52.836;6.376;2022-12-29T05:20:53;99766.75;;;9.42;81.53
55456;BME280;63021;52.836;6.376;2022-12-29T05:23:18;99777.91;;;9.38;81.10
55456;BME280;63021;52.836;6.376;2022-12-29T05:25:44;99778.06;;;9.36;81.30
55456;BME280;63021;52.836;6.376;2022-12-29T05:28:13;99780.22;;;9.32;81.33
55456;BME280;63021;52.836;6.376;2022-12-29T05:30:39;99777.72;;;9.31;81.36
55456;BME280;63021;52.836;6.376;2022-12-29T05:33:04;99776.25;;;9.28;81.42
55456;BME280;63021;52.836;6.376;2022-12-29T05:35:31;99778.03;;;9.28;81.65
55456;BME280;63021;52.836;6.376;2022-12-29T05:37:57;99778.03;;;9.28;81.46
55456;BME280;63021;52.836;6.376;2022-12-29T05:40:22;99789.69;;;9.27;81.68
55456;BME280;63021;52.836;6.376;2022-12-29T05:42:47;99784.69;;;9.24;81.38
55456;BME280;63021;52.836;6.376;2022-12-29T05:45:13;99790.31;;;9.21;81.02
55456;BME280;63021;52.836;6.376;2022-12-29T05:47:38;99797.63;;;9.18;80.96
55456;BME280;63021;52.836;6.376;2022-12-29T05:50:04;99796.81;;;9.18;81.22
55456;BME280;63021;52.836;6.376;2022-12-29T05:52:29;99795.31;;;9.15;81.18
55456;BME280;63021;52.836;6.376;2022-12-29T05:54:55;99801.44;;;9.16;81.23
55456;BME280;63021;52.836;6.376;2022-12-29T05:57:20;99800.94;;;9.12;80.99
55456;BME280;63021;52.836;6.376;2022-12-29T05:59:45;99807.25;;;9.11;80.83
55456;BME280;63021;52.836;6.376;2022-12-29T06:02:11;99802.91;;;9.10;81.45
55456;BME280;63021;52.836;6.376;2022-12-29T06:04:36;99806.25;;;9.12;80.77
55456;BME280;63021;52.836;6.376;2022-12-29T06:07:01;99795.94;;;9.09;80.58
55456;BME280;63021;52.836;6.376;2022-12-29T06:09:27;99812.88;;;9.08;81.14
55456;BME280;63021;52.836;6.376;2022-12-29T06:11:52;99826.16;;;9.08;80.51
55456;BME280;63021;52.836;6.376;2022-12-29T06:14:17;99831.63;;;9.07;80.86
55456;BME280;63021;52.836;6.376;2022-12-29T06:16:43;99835.28;;;9.06;80.53
55456;BME280;63021;52.836;6.376;2022-12-29T06:19:08;99838.91;;;9.05;80.33
55456;BME280;63021;52.836;6.376;2022-12-29T06:21:33;99844.06;;;9.06;80.22
55456;BME280;63021;52.836;6.376;2022-12-29T06:23:59;99831.63;;;9.07;80.28
55456;BME280;63021;52.836;6.376;2022-12-29T06:26:24;99843.06;;;9.07;80.02
55456;BME280;63021;52.836;6.376;2022-12-29T06:28:49;99842.91;;;9.09;80.08
55456;BME280;63021;52.836;6.376;2022-12-29T06:31:15;99839.28;;;9.10;80.02
55456;BME280;63021;52.836;6.376;2022-12-29T06:33:40;99843.59;;;9.11;80.14
55456;BME280;63021;52.836;6.376;2022-12-29T06:36:06;99839.09;;;9.11;79.98
55456;BME280;63021;52.836;6.376;2022-12-29T06:38:31;99855.19;;;9.10;80.28
55456;BME280;63021;52.836;6.376;2022-12-29T06:40:57;99848.91;;;9.11;80.15
55456;BME280;63021;52.836;6.376;2022-12-29T06:43:22;99847.41;;;9.08;79.87
55456;BME280;63021;52.836;6.376;2022-12-29T06:45:47;99842.91;;;9.09;79.77
55456;BME280;63021;52.836;6.376;2022-12-29T06:48:13;99841.94;;;9.10;79.43
55456;BME280;63021;52.836;6.376;2022-12-29T06:50:38;99856.19;;;9.09;79.22
55456;BME280;63021;52.836;6.376;2022-12-29T06:53:04;99846.38;;;9.09;79.36
55456;BME280;63021;52.836;6.376;2022-12-29T06:55:29;99848.22;;;9.09;79.71
55456;BME280;63021;52.836;6.376;2022-12-29T06:57:56;99845.56;;;9.09;79.48
55456;BME280;63021;52.836;6.376;2022-12-29T07:00:21;99856.19;;;9.09;79.62
55456;BME280;63021;52.836;6.376;2022-12-29T07:02:47;99858.84;;;9.09;79.63
55456;BME280;63021;52.836;6.376;2022-12-29T07:05:12;99847.41;;;9.08;79.64
55456;BME280;63021;52.836;6.376;2022-12-29T07:07:38;99847.41;;;9.08;79.51
55456;BME280;63021;52.836;6.376;2022-12-29T07:10:04;99859.66;;;9.09;79.29
55456;BME280;63021;52.836;6.376;2022-12-29T07:12:30;99863.34;;;9.08;79.49
55456;BME280;63021;52.836;6.376;2022-12-29T07:14:55;99859.81;;;9.08;78.73
55456;BME280;63021;52.836;6.376;2022-12-29T07:17:20;99857.34;;;9.06;78.80
55456;BME280;63021;52.836;6.376;2022-12-29T07:19:46;99859.00;;;9.07;79.11
55456;BME280;63021;52.836;6.376;2022-12-29T07:22:11;99866.97;;;9.07;79.15
55456;BME280;63021;52.836;6.376;2022-12-29T07:24:37;99866.00;;;9.08;79.53
55456;BME280;63021;52.836;6.376;2022-12-29T07:27:03;99878.25;;;9.09;79.24
55456;BME280;63021;52.836;6.376;2022-12-29T07:29:28;99887.72;;;9.12;79.56
55456;BME280;63021;52.836;6.376;2022-12-29T07:31:53;99882.41;;;9.12;78.66
55456;BME280;63021;52.836;6.376;2022-12-29T07:34:19;99885.06;;;9.12;79.46
55456;BME280;63021;52.836;6.376;2022-12-29T07:36:44;99878.13;;;9.11;78.78
55456;BME280;63021;52.836;6.376;2022-12-29T07:39:10;99878.13;;;9.11;78.81
55456;BME280;63021;52.836;6.376;2022-12-29T07:41:36;99881.59;;;9.11;79.15
55456;BME280;63021;52.836;6.376;2022-12-29T07:44:02;99855.19;;;9.10;79.01
55456;BME280;63021;52.836;6.376;2022-12-29T07:46:27;99884.72;;;9.07;79.21
55456;BME280;63021;52.836;6.376;2022-12-29T07:48:53;99889.72;;;9.10;79.00
55456;BME280;63021;52.836;6.376;2022-12-29T07:51:18;99889.72;;;9.10;79.04
55456;BME280;63021;52.836;6.376;2022-12-29T07:53:43;99881.38;;;9.05;78.26
55456;BME280;63021;52.836;6.376;2022-12-29T07:56:09;99874.41;;;9.04;79.03
55456;BME280;63021;52.836;6.376;2022-12-29T07:58:34;99882.25;;;9.05;78.24
55456;BME280;63021;52.836;6.376;2022-12-29T08:00:59;99875.09;;;9.06;78.65
55456;BME280;63021;52.836;6.376;2022-12-29T08:03:25;99888.53;;;9.04;77.95
55456;BME280;63021;52.836;6.376;2022-12-29T08:05:51;99885.19;;;9.02;78.17
55456;BME280;63021;52.836;6.376;2022-12-29T08:08:16;99894.00;;;9.02;78.52
55456;BME280;63021;52.836;6.376;2022-12-29T08:10:42;99886.22;;;9.01;77.75
55456;BME280;63021;52.836;6.376;2022-12-29T08:13:07;99884.38;;;9.01;78.42
55456;BME280;63021;52.836;6.376;2022-12-29T08:15:33;99896.66;;;9.02;77.85
55456;BME280;63021;52.836;6.376;2022-12-29T08:17:58;99887.84;;;9.02;77.99
55456;BME280;63021;52.836;6.376;2022-12-29T08:20:24;99897.47;;;9.03;77.32
55456;BME280;63021;52.836;6.376;2022-12-29T08:22:50;99900.13;;;9.03;78.09
55456;BME280;63021;52.836;6.376;2022-12-29T08:25:16;99893.16;;;9.02;77.95
55456;BME280;63021;52.836;6.376;2022-12-29T08:27:41;99902.78;;;9.03;77.38
55456;BME280;63021;52.836;6.376;2022-12-29T08:30:07;99879.88;;;9.02;77.22
55456;BME280;63021;52.836;6.376;2022-12-29T08:32:33;99901.81;;;9.04;77.50
55456;BME280;63021;52.836;6.376;2022-12-29T08:34:58;99891.19;;;9.04;77.47
55456;BME280;63021;52.836;6.376;2022-12-29T08:37:24;99884.72;;;9.07;77.77
55456;BME280;63021;52.836;6.376;2022-12-29T08:39:49;99890.03;;;9.07;76.94
55456;BME280;63021;52.836;6.376;2022-12-29T08:42:15;99890.88;;;9.07;77.42
55456;BME280;63021;52.836;6.376;2022-12-29T08:44:40;99890.88;;;9.07;76.89
55456;BME280;63021;52.836;6.376;2022-12-29T08:47:06;99882.75;;;9.09;77.30
55456;BME280;63021;52.836;6.376;2022-12-29T08:49:31;99885.38;;;9.09;77.05
55456;BME280;63021;52.836;6.376;2022-12-29T08:51:58;99887.72;;;9.12;76.69
55456;BME280;63021;52.836;6.376;2022-12-29T08:54:24;99886.22;;;9.09;77.11
55456;BME280;63021;52.836;6.376;2022-12-29T08:56:49;99900.19;;;9.11;76.67
55456;BME280;63021;52.836;6.376;2022-12-29T08:59:14;99886.75;;;9.13;76.49
55456;BME280;63021;52.836;6.376;2022-12-29T09:01:40;99892.88;;;9.13;76.50
55456;BME280;63021;52.836;6.376;2022-12-29T09:04:06;99891.88;;;9.14;76.87
55456;BME280;63021;52.836;6.376;2022-12-29T09:06:32;99897.19;;;9.14;76.34
55456;BME280;63021;52.836;6.376;2022-12-29T09:08:57;99891.53;;;9.09;76.62
55456;BME280;63021;52.836;6.376;2022-12-29T09:11:24;99900.19;;;9.11;76.77
55456;BME280;63021;52.836;6.376;2022-12-29T09:13:50;99901.84;;;9.12;77.24
55456;BME280;63021;52.836;6.376;2022-12-29T09:16:16;99899.34;;;9.11;77.05
55456;BME280;63021;52.836;6.376;2022-12-29T09:18:42;99908.31;;;9.10;77.15
55456;BME280;63021;52.836;6.376;2022-12-29T09:21:10;99906.63;;;9.09;76.89
55456;BME280;63021;52.836;6.376;2022-12-29T09:23:35;99905.13;;;9.06;77.63
55456;BME280;63021;52.836;6.376;2022-12-29T09:26:01;99905.13;;;9.06;77.40
55456;BME280;63021;52.836;6.376;2022-12-29T09:28:27;99911.28;;;9.07;77.88
55456;BME280;63021;52.836;6.376;2022-12-29T09:30:54;99911.28;;;9.07;77.32
55456;BME280;63021;52.836;6.376;2022-12-29T09:33:20;99920.88;;;9.08;77.38
55456;BME280;63021;52.836;6.376;2022-12-29T09:35:51;99920.72;;;9.09;77.07
55456;BME280;63021;52.836;6.376;2022-12-29T09:38:17;99914.59;;;9.09;77.46
55456;BME280;63021;52.836;6.376;2022-12-29T09:40:45;99926.03;;;9.09;77.71
55456;BME280;63021;52.836;6.376;2022-12-29T09:46:31;99935.84;;;9.09;77.90
55456;BME280;63021;52.836;6.376;2022-12-29T09:52:11;99942.63;;;9.03;77.80
55456;BME280;63021;52.836;6.376;2022-12-29T09:54:54;99945.44;;;9.01;77.75
55456;BME280;63021;52.836;6.376;2022-12-29T09:57:25;99958.88;;;9.00;78.41
55456;BME280;63021;52.836;6.376;2022-12-29T09:59:56;99948.56;;;8.97;78.41
55456;BME280;63021;52.836;6.376;2022-12-29T10:02:36;99965.63;;;8.94;78.87
55456;BME280;63021;52.836;6.376;2022-12-29T10:05:03;99957.69;;;8.94;78.84
55456;BME280;63021;52.836;6.376;2022-12-29T10:07:40;99952.53;;;8.93;78.68
55456;BME280;63021;52.836;6.376;2022-12-29T10:10:38;99957.19;;;8.91;78.85
55456;BME280;63021;52.836;6.376;2022-12-29T10:13:16;99961.28;;;8.85;79.02
55456;BME280;63021;52.836;6.376;2022-12-29T10:16:04;99967.41;;;8.86;79.07
55456;BME280;63021;52.836;6.376;2022-12-29T10:18:52;99986.97;;;8.84;79.57
55456;BME280;63021;52.836;6.376;2022-12-29T10:23:48;99983.81;;;8.81;79.56
55456;BME280;63021;52.836;6.376;2022-12-29T10:26:21;99984.25;;;8.76;80.35
55456;BME280;63021;52.836;6.376;2022-12-29T10:31:18;99992.38;;;8.75;80.65
55456;BME280;63021;52.836;6.376;2022-12-29T10:33:49;99993.41;;;8.74;80.97
55456;BME280;63021;52.836;6.376;2022-12-29T10:36:20;100001.34;;;8.74;80.96
55456;BME280;63021;52.836;6.376;2022-12-29T10:39:04;99994.38;;;8.73;81.06
55456;BME280;63021;52.836;6.376;2022-12-29T10:41:41;100001.66;;;8.71;81.45
55456;BME280;63021;52.836;6.376;2022-12-29T10:44:14;100004.44;;;8.69;81.39
55456;BME280;63021;52.836;6.376;2022-12-29T10:46:41;100002.66;;;8.70;81.43
55456;BME280;63021;52.836;6.376;2022-12-29T10:49:15;99995.00;;;8.66;81.93
55456;BME280;63021;52.836;6.376;2022-12-29T10:51:44;100006.28;;;8.69;82.00
55456;BME280;63021;52.836;6.376;2022-12-29T10:56:50;100013.59;;;8.66;81.94
55456;BME280;63021;52.836;6.376;2022-12-29T10:59:29;100011.59;;;8.69;82.33
55456;BME280;63021;52.836;6.376;2022-12-29T11:04:50;100026.06;;;8.74;82.34
55456;BME280;63021;52.836;6.376;2022-12-29T11:07:19;100028.41;;;8.77;82.89
55456;BME280;63021;52.836;6.376;2022-12-29T11:09:45;100022.78;;;8.80;82.84
55456;BME280;63021;52.836;6.376;2022-12-29T11:15:21;100037.09;;;8.88;82.73
55456;BME280;63021;52.836;6.376;2022-12-29T11:17:51;100053.88;;;8.88;83.02
55456;BME280;63021;52.836;6.376;2022-12-29T11:22:56;100057.34;;;8.89;82.72
55456;BME280;63021;52.836;6.376;2022-12-29T11:25:21;100071.31;;;8.91;83.15
55456;BME280;63021;52.836;6.376;2022-12-29T11:28:14;100070.47;;;8.90;82.86
55456;BME280;63021;52.836;6.376;2022-12-29T11:30:39;100081.78;;;8.92;82.92
55456;BME280;63021;52.836;6.376;2022-12-29T11:33:05;100083.56;;;8.92;83.10
55456;BME280;63021;52.836;6.376;2022-12-29T11:38:00;100092.59;;;8.99;82.79
55456;BME280;63021;52.836;6.376;2022-12-29T11:40:27;100092.28;;;9.02;83.38
55456;BME280;63021;52.836;6.376;2022-12-29T11:43:01;100086.81;;;9.04;82.51
55456;BME280;63021;52.836;6.376;2022-12-29T11:45:33;100089.31;;;9.05;82.60
55456;BME280;63021;52.836;6.376;2022-12-29T11:48:08;100101.59;;;9.06;82.82
55456;BME280;63021;52.836;6.376;2022-12-29T11:50:38;100106.09;;;9.06;82.97
55456;BME280;63021;52.836;6.376;2022-12-29T11:53:15;100104.63;;;9.11;82.98
55456;BME280;63021;52.836;6.376;2022-12-29T11:55:51;100115.25;;;9.11;82.54
55456;BME280;63021;52.836;6.376;2022-12-29T11:58:18;100116.75;;;9.14;82.98
55456;BME280;63021;52.836;6.376;2022-12-29T12:00:44;100131.53;;;9.16;82.98
55456;BME280;63021;52.836;6.376;2022-12-29T12:03:21;100124.25;;;9.18;82.86
55456;BME280;63021;52.836;6.376;2022-12-29T12:05:54;100123.28;;;9.19;82.34
55456;BME280;63021;52.836;6.376;2022-12-29T12:11:37;100148.16;;;9.18;82.30
55456;BME280;63021;52.836;6.376;2022-12-29T12:16:50;100150.66;;;9.20;82.04
55456;BME280;63021;52.836;6.376;2022-12-29T12:19:41;100160.47;;;9.19;81.28
55456;BME280;63021;52.836;6.376;2022-12-29T12:22:34;100164.75;;;9.21;81.49
55456;BME280;63021;52.836;6.376;2022-12-29T12:25:16;100161.13;;;9.22;81.22
55456;BME280;63021;52.836;6.376;2022-12-29T12:27:57;100171.91;;;9.20;81.40
55456;BME280;63021;52.836;6.376;2022-12-29T12:30:30;100186.84;;;9.21;81.18
55456;BME280;63021;52.836;6.376;2022-12-29T12:33:23;100187.00;;;9.19;81.08
55456;BME280;63021;52.836;6.376;2022-12-29T12:44:24;100201.50;;;9.25;81.13
55456;BME280;63021;52.836;6.376;2022-12-29T12:58:16;100202.84;;;9.29;80.35
55456;BME280;63021;52.836;6.376;2022-12-29T13:20:10;100231.31;;;9.19;78.56
55456;BME280;63021;52.836;6.376;2022-12-29T13:22:51;100224.78;;;9.13;78.37
55456;BME280;63021;52.836;6.376;2022-12-29T13:28:16;100235.03;;;9.08;78.04
55456;BME280;63021;52.836;6.376;2022-12-29T13:31:04;100235.88;;;9.09;78.36
55456;BME280;63021;52.836;6.376;2022-12-29T13:36:19;100242.84;;;9.10;78.11
55456;BME280;63021;52.836;6.376;2022-12-29T13:38:51;100248.84;;;9.12;78.44
55456;BME280;63021;52.836;6.376;2022-12-29T13:41:32;100253.47;;;9.10;78.29
55456;BME280;63021;52.836;6.376;2022-12-29T13:44:00;100251.13;;;9.07;77.95
55456;BME280;63021;52.836;6.376;2022-12-29T13:46:31;100254.63;;;9.07;78.16
55456;BME280;63021;52.836;6.376;2022-12-29T13:49:03;100265.22;;;9.07;77.71
55456;BME280;63021;52.836;6.376;2022-12-29T13:51:30;100267.22;;;9.05;77.69
55456;BME280;63021;52.836;6.376;2022-12-29T13:56:50;100263.56;;;9.06;78.14
55456;BME280;63021;52.836;6.376;2022-12-29T13:59:48;100276.31;;;9.02;77.07
55456;BME280;63021;52.836;6.376;2022-12-29T14:07:43;100266.59;;;8.93;77.44
55456;BME280;63021;52.836;6.376;2022-12-29T14:10:33;100282.50;;;8.93;76.91
55456;BME280;63021;52.836;6.376;2022-12-29T14:13:13;100283.66;;;8.91;77.70
55456;BME280;63021;52.836;6.376;2022-12-29T14:15:42;100283.50;;;8.92;76.96
55456;BME280;63021;52.836;6.376;2022-12-29T14:18:15;100291.47;;;8.92;77.30
55456;BME280;63021;52.836;6.376;2022-12-29T14:28:34;100296.53;;;8.86;76.69
55456;BME280;63021;52.836;6.376;2022-12-29T14:31:04;100295.00;;;8.83;76.75
55456;BME280;63021;52.836;6.376;2022-12-29T14:33:32;100292.50;;;8.81;76.60
55456;BME280;63021;52.836;6.376;2022-12-29T14:36:21;100293.47;;;8.80;75.97
55456;BME280;63021;52.836;6.376;2022-12-29T14:38:50;100288.63;;;8.76;76.44
55456;BME280;63021;52.836;6.376;2022-12-29T14:41:18;100289.44;;;8.76;75.49
55456;BME280;63021;52.836;6.376;2022-12-29T14:43:55;100291.44;;;8.74;76.38
55456;BME280;63021;52.836;6.376;2022-12-29T14:46:22;100304.84;;;8.73;75.88
55456;BME280;63021;52.836;6.376;2022-12-29T14:48:54;100290.91;;;8.71;75.67
55456;BME280;63021;52.836;6.376;2022-12-29T14:51:31;100295.38;;;8.70;76.20
55456;BME280;63021;52.836;6.376;2022-12-29T14:53:59;100292.03;;;8.68;75.79
55456;BME280;63021;52.836;6.376;2022-12-29T14:56:27;100293.00;;;8.67;76.12
55456;BME280;63021;52.836;6.376;2022-12-29T14:59:04;100303.63;;;8.67;75.55
55456;BME280;63021;52.836;6.376;2022-12-29T15:06:46;100317.19;;;8.64;76.47
55456;BME280;63021;52.836;6.376;2022-12-29T15:11:56;100310.22;;;8.63;75.97
55456;BME280;63021;52.836;6.376;2022-12-29T15:14:37;100313.97;;;8.60;75.81
55456;BME280;63021;52.836;6.376;2022-12-29T15:17:22;100308.97;;;8.57;76.40
55456;BME280;63021;52.836;6.376;2022-12-29T15:19:48;100311.25;;;8.52;75.86
55456;BME280;63021;52.836;6.376;2022-12-29T15:22:14;100321.00;;;8.52;76.33
55456;BME280;63021;52.836;6.376;2022-12-29T15:24:43;100316.72;;;8.51;77.01
55456;BME280;63021;52.836;6.376;2022-12-29T15:27:18;100317.69;;;8.49;76.30
55456;BME280;63021;52.836;6.376;2022-12-29T15:29:45;100313.50;;;8.47;76.66
55456;BME280;63021;52.836;6.376;2022-12-29T15:32:24;100315.31;;;8.46;76.15
55456;BME280;63021;52.836;6.376;2022-12-29T15:34:53;100318.13;;;8.45;76.83
55456;BME280;63021;52.836;6.376;2022-12-29T15:37:26;100316.56;;;8.42;76.95
55456;BME280;63021;52.836;6.376;2022-12-29T15:39:54;100323.13;;;8.38;76.89
55456;BME280;63021;52.836;6.376;2022-12-29T15:42:23;100333.75;;;8.38;77.16